createdAt,value
2022-08-04T00:00:14.305Z,100465.72
2022-08-04T00:01:42.059Z,100457.41
2022-08-04T00:03:02.807Z,100450.72
2022-08-04T00:04:13.613Z,100467.22
2022-08-04T00:05:58.999Z,100463.25
2022-08-04T00:07:07.807Z,100465.97
2022-08-04T00:08:17.779Z,100455.38
2022-08-04T00:09:49.741Z,100464.50
2022-08-04T00:10:55.808Z,100459.50
2022-08-04T00:12:01.436Z,100454.75
2022-08-04T00:13:05.640Z,100459.13
2022-08-04T00:14:15.187Z,100464.31
2022-08-04T00:15:18.604Z,100460.59
2022-08-04T00:16:22.762Z,100455.00
2022-08-04T00:17:31.608Z,100469.78
2022-08-04T00:18:39.208Z,100473.75
2022-08-04T00:19:44.238Z,100464.81
2022-08-04T00:20:46.314Z,100470.41
2022-08-04T00:21:55.682Z,100467.09
2022-08-04T00:22:58.214Z,100475.84
2022-08-04T00:24:11.933Z,100460.44
2022-08-04T00:25:15.200Z,100472.09
2022-08-04T00:26:18.514Z,100473.75
2022-08-04T00:27:21.201Z,100460.00
2022-08-04T00:28:24.371Z,100482.53
2022-08-04T00:29:27.499Z,100456.25
2022-08-04T00:30:29.599Z,100476.28
2022-08-04T00:31:33.367Z,100474.63
2022-08-04T00:32:55.051Z,100471.22
2022-08-04T00:33:57.968Z,100464.38
2022-08-04T00:35:00.323Z,100464.81
2022-08-04T00:36:02.819Z,100459.56
2022-08-04T00:37:06.616Z,100461.22
2022-08-04T00:38:08.839Z,100437.06
2022-08-04T00:39:16.789Z,100457.91
2022-08-04T00:40:43.718Z,100454.75
2022-08-04T00:42:12.955Z,100459.31
2022-08-04T00:43:44.151Z,100462.03
2022-08-04T00:45:11.999Z,100454.06
2022-08-04T00:46:30.935Z,100463.69
2022-08-04T00:47:50.691Z,100460.78
2022-08-04T00:49:01.387Z,100466.22
2022-08-04T00:50:24.195Z,100458.06
2022-08-04T00:51:41.426Z,100439.09
2022-08-04T00:53:02.466Z,100456.59
2022-08-04T00:54:18.143Z,100456.59
2022-08-04T00:55:29.202Z,100456.22
2022-08-04T00:56:39.912Z,100449.94
2022-08-04T00:58:02.999Z,100459.13
2022-08-04T00:59:26.925Z,100453.28
2022-08-04T01:00:38.171Z,100443.28
2022-08-04T01:02:02.986Z,100441.81
2022-08-04T01:03:29.783Z,100450.56
2022-08-04T01:05:04.122Z,100439.28
2022-08-04T01:06:24.748Z,100438.44
2022-08-04T01:07:57.760Z,100438.03
2022-08-04T01:09:21.656Z,100440.31
2022-08-04T01:10:47.104Z,100441.97
2022-08-04T01:12:08.194Z,100436.16
2022-08-04T01:13:45.594Z,100433.41
2022-08-04T01:15:07.807Z,100413.16
2022-08-04T01:16:13.107Z,100436.16
2022-08-04T01:17:44.272Z,100443.28
2022-08-04T01:19:02.130Z,100444.09
2022-08-04T01:20:08.170Z,100429.50
2022-08-04T01:21:51.018Z,100414.03
2022-08-04T01:23:17.394Z,100414.81
2022-08-04T01:24:38.029Z,100436.97
2022-08-04T01:26:15.273Z,100425.53
2022-08-04T01:27:44.047Z,100420.72
2022-08-04T01:29:06.203Z,100431.34
2022-08-04T01:30:09.941Z,100431.38
2022-08-04T01:31:22.008Z,100446.63
2022-08-04T01:32:31.951Z,100455.38
2022-08-04T01:33:58.563Z,100450.81
2022-08-04T01:35:22.106Z,100451.00
2022-08-04T01:36:45.215Z,100458.72
2022-08-04T01:38:21.618Z,100463.94
2022-08-04T01:39:43.419Z,100480.84
2022-08-04T01:40:46.660Z,100463.13
2022-08-04T01:41:57.965Z,100453.53
2022-08-04T01:43:02.760Z,100479.19
2022-08-04T01:44:05.954Z,100469.63
2022-08-04T01:45:10.545Z,100454.59
2022-08-04T01:46:14.733Z,100456.44
2022-08-04T01:47:21.022Z,100475.69
2022-08-04T01:48:27.988Z,100470.25
2022-08-04T01:49:39.959Z,100464.81
2022-08-04T01:50:45.085Z,100470.25
2022-08-04T01:51:50.415Z,100466.25
2022-08-04T01:52:54.646Z,100451.03
2022-08-04T01:53:56.527Z,100462.50
2022-08-04T01:54:58.372Z,100471.28
2022-08-04T01:56:02.637Z,100468.34
2022-08-04T01:57:36.807Z,100445.84
2022-08-04T01:58:31.031Z,100472.34
2022-08-04T01:59:34.835Z,100450.63
2022-08-04T02:00:46.504Z,100455.00
2022-08-04T02:01:48.975Z,100463.34
2022-08-04T02:02:51.561Z,100480.91
2022-08-04T02:04:19.947Z,100451.69
2022-08-04T02:05:17.136Z,100467.97
2022-08-04T02:06:31.915Z,100452.94
2022-08-04T02:07:49.923Z,100482.34
2022-08-04T02:08:57.055Z,100476.31
2022-08-04T02:10:25.784Z,100489.66
2022-08-04T02:11:27.749Z,100499.88
2022-08-04T02:12:48.594Z,100480.50
2022-08-04T02:14:45.882Z,100489.88
2022-08-04T02:16:03.886Z,100490.06
2022-08-04T02:17:12.178Z,100482.56
2022-08-04T02:18:42.068Z,100483.59
2022-08-04T02:19:53.883Z,100482.53
2022-08-04T02:21:01.672Z,100482.16
2022-08-04T02:22:08.392Z,100467.53
2022-08-04T02:23:15.244Z,100466.69
2022-08-04T02:24:22.771Z,100485.06
2022-08-04T02:25:26.999Z,100472.75
2022-08-04T02:26:32.491Z,100485.69
2022-08-04T02:28:00.259Z,100490.50
2022-08-04T02:29:32.199Z,100488.63
2022-08-04T02:30:59.865Z,100488.00
2022-08-04T02:32:04.808Z,100497.16
2022-08-04T02:33:08.863Z,100491.75
2022-08-04T02:34:32.222Z,100501.97
2022-08-04T02:35:38.545Z,100503.44
2022-08-04T02:36:42.629Z,100516.41
2022-08-04T02:37:49.936Z,100515.13
2022-08-04T02:39:03.662Z,100516.41
2022-08-04T02:40:06.930Z,100500.94
2022-08-04T02:41:10.198Z,100520.56
2022-08-04T02:42:13.651Z,100518.25
2022-08-04T02:43:20.235Z,100504.28
2022-08-04T02:44:47.855Z,100516.41
2022-08-04T02:45:55.828Z,100520.34
2022-08-04T02:47:00.450Z,100512.41
2022-08-04T02:48:29.458Z,100523.50
2022-08-04T02:49:26.697Z,100533.72
2022-08-04T02:50:38.047Z,100520.16
2022-08-04T02:51:45.365Z,100531.41
2022-08-04T02:52:50.420Z,100514.72
2022-08-04T02:53:56.062Z,100527.25
2022-08-04T02:55:01.800Z,100528.06
2022-08-04T02:56:06.623Z,100527.25
2022-08-04T02:57:15.400Z,100512.81
2022-08-04T02:58:20.619Z,100505.72
2022-08-04T02:59:26.350Z,100531.00
2022-08-04T03:00:29.168Z,100512.41
2022-08-04T03:01:32.584Z,100530.16
2022-08-04T03:02:51.827Z,100523.91
2022-08-04T03:04:12.321Z,100528.91
2022-08-04T03:05:19.686Z,100513.44
2022-08-04T03:06:52.415Z,100532.69
2022-08-04T03:08:30.196Z,100504.25
2022-08-04T03:10:09.479Z,100523.88
2022-08-04T03:11:48.820Z,100496.78
2022-08-04T03:13:21.483Z,100516.78
2022-08-04T03:14:29.271Z,100519.09
2022-08-04T03:16:03.427Z,100516.38
2022-08-04T03:17:19.227Z,100519.53
2022-08-04T03:18:39.900Z,100519.31
2022-08-04T03:20:12.170Z,100521.63
2022-08-04T03:21:42.959Z,100519.50
2022-08-04T03:23:15.719Z,100523.50
2022-08-04T03:24:20.471Z,100517.88
2022-08-04T03:25:57.249Z,100508.44
2022-08-04T03:27:34.987Z,100514.50
2022-08-04T03:29:03.879Z,100504.47
2022-08-04T03:30:09.459Z,100511.59
2022-08-04T03:31:35.058Z,100494.88
2022-08-04T03:33:01.550Z,100503.44
2022-08-04T03:34:21.758Z,100509.28
2022-08-04T03:35:34.993Z,100500.94
2022-08-04T03:36:45.715Z,100510.13
2022-08-04T03:37:50.024Z,100503.88
2022-08-04T03:39:10.077Z,100508.44
2022-08-04T03:40:33.126Z,100511.34
2022-08-04T03:42:04.370Z,100516.41
2022-08-04T03:43:57.085Z,100514.31
2022-08-04T03:44:49.807Z,100521.63
2022-08-04T03:46:06.816Z,100515.78
2022-08-04T03:47:46.067Z,100515.78
2022-08-04T03:49:05.763Z,100516.19
2022-08-04T03:50:30.548Z,100515.13
2022-08-04T03:52:01.559Z,100514.91
2022-08-04T03:53:20.832Z,100509.91
2022-08-04T03:55:04.958Z,100518.06
2022-08-04T03:56:30.883Z,100516.81
2022-08-04T03:57:35.199Z,100522.69
2022-08-04T03:58:49.129Z,100513.69
2022-08-04T03:59:57.570Z,100524.72
2022-08-04T04:01:28.762Z,100522.25
2022-08-04T04:03:01.752Z,100516.78
2022-08-04T04:04:21.407Z,100498.25
2022-08-04T04:06:00.495Z,100518.25
2022-08-04T04:07:24.385Z,100527.25
2022-08-04T04:09:13.547Z,100523.91
2022-08-04T04:10:41.419Z,100527.88
2022-08-04T04:12:26.660Z,100512.22
2022-08-04T04:13:43.679Z,100524.97
2022-08-04T04:15:16.995Z,100514.91
2022-08-04T04:16:54.797Z,100517.63
2022-08-04T04:18:05.757Z,100512.63
2022-08-04T04:19:24.045Z,100512.41
2022-08-04T04:20:52.083Z,100518.88
2022-08-04T04:22:07.859Z,100513.44
2022-08-04T04:23:30.827Z,100517.84
2022-08-04T04:24:56.985Z,100521.81
2022-08-04T04:26:23.089Z,100523.91
2022-08-04T04:27:43.656Z,100523.91
2022-08-04T04:28:48.077Z,100519.72
2022-08-04T04:30:14.058Z,100530.19
2022-08-04T04:31:34.596Z,100536.84
2022-08-04T04:32:48.250Z,100536.44
2022-08-04T04:34:08.319Z,100525.16
2022-08-04T04:35:11.123Z,100539.34
2022-08-04T04:36:33.127Z,100543.75
2022-08-04T04:37:47.983Z,100522.63
2022-08-04T04:39:12.727Z,100545.22
2022-08-04T04:40:42.536Z,100544.59
2022-08-04T04:42:21.674Z,100544.34
2022-08-04T04:43:51.542Z,100543.13
2022-08-04T04:45:00.335Z,100542.06
2022-08-04T04:46:08.295Z,100538.09
2022-08-04T04:47:43.022Z,100547.69
2022-08-04T04:48:56.614Z,100545.00
2022-08-04T04:50:14.654Z,100533.50
2022-08-04T04:51:37.704Z,100549.81
2022-08-04T04:52:53.795Z,100537.88
2022-08-04T04:54:20.512Z,100551.69
2022-08-04T04:55:28.943Z,100553.16
2022-08-04T04:56:41.727Z,100547.69
2022-08-04T04:57:53.853Z,100555.44
2022-08-04T04:58:58.934Z,100540.59
2022-08-04T05:00:07.082Z,100552.06
2022-08-04T05:01:38.272Z,100556.50
2022-08-04T05:03:11.975Z,100557.72
2022-08-04T05:04:46.374Z,100541.88
2022-08-04T05:06:00.514Z,100546.03
2022-08-04T05:07:28.344Z,100556.88
2022-08-04T05:08:47.410Z,100556.88
2022-08-04T05:10:28.456Z,100559.16
2022-08-04T05:11:51.548Z,100566.31
2022-08-04T05:14:38.227Z,100558.16
2022-08-04T05:14:49.662Z,100546.25
2022-08-04T05:15:56.637Z,100558.56
2022-08-04T05:17:06.537Z,100563.59
2022-08-04T05:18:14.793Z,100557.31
2022-08-04T05:19:39.131Z,100548.53
2022-08-04T05:20:48.755Z,100563.56
2022-08-04T05:21:57.299Z,100554.41
2022-08-04T05:23:27.801Z,100573.56
2022-08-04T05:24:35.266Z,100577.31
2022-08-04T05:26:00.469Z,100567.69
2022-08-04T05:27:10.318Z,100574.81
2022-08-04T05:28:25.003Z,100577.72
2022-08-04T05:29:41.786Z,100577.50
2022-08-04T05:30:50.290Z,100578.75
2022-08-04T05:31:54.313Z,100564.97
2022-08-04T05:33:01.324Z,100572.03
2022-08-04T05:34:11.275Z,100574.94
2022-08-04T05:35:52.111Z,100573.69
2022-08-04T05:36:53.431Z,100577.44
2022-08-04T05:38:01.358Z,100578.28
2022-08-04T05:39:06.184Z,100579.72
2022-08-04T05:40:11.109Z,100579.34
2022-08-04T05:41:13.762Z,100582.22
2022-08-04T05:42:15.975Z,100580.13
2022-08-04T05:43:19.007Z,100592.69
2022-08-04T05:44:23.817Z,100581.38
2022-08-04T05:45:27.054Z,100577.41
2022-08-04T05:46:42.656Z,100585.75
2022-08-04T05:47:45.776Z,100568.22
2022-08-04T05:48:48.707Z,100578.84
2022-08-04T05:50:01.623Z,100584.25
2022-08-04T05:51:05.663Z,100587.34
2022-08-04T05:52:10.261Z,100585.47
2022-08-04T05:53:14.366Z,100584.44
2022-08-04T05:54:18.572Z,100587.78
2022-08-04T05:55:58.659Z,100575.03
2022-08-04T05:56:43.911Z,100586.69
2022-08-04T05:57:51.783Z,100575.22
2022-08-04T05:58:56.648Z,100579.59
2022-08-04T06:00:14.632Z,100594.63
2022-08-04T06:01:25.366Z,100578.53
2022-08-04T06:02:28.556Z,100593.13
2022-08-04T06:03:31.388Z,100576.63
2022-08-04T06:04:38.870Z,100570.19
2022-08-04T06:05:43.754Z,100584.34
2022-08-04T06:06:47.526Z,100571.00
2022-08-04T06:08:12.753Z,100581.00
2022-08-04T06:09:12.081Z,100569.94
2022-08-04T06:10:14.172Z,100590.22
2022-08-04T06:11:17.578Z,100594.16
2022-08-04T06:12:37.637Z,100585.59
2022-08-04T06:13:51.103Z,100577.22
2022-08-04T06:14:59.624Z,100584.78
2022-08-04T06:16:02.970Z,100596.44
2022-08-04T06:18:33.110Z,100579.34
2022-08-04T06:18:42.214Z,100561.78
2022-08-04T06:20:01.128Z,100596.22
2022-08-04T06:21:16.217Z,100584.53
2022-08-04T06:22:19.702Z,100587.44
2022-08-04T06:23:23.636Z,100570.72
2022-08-04T06:24:29.014Z,100579.50
2022-08-04T06:25:45.015Z,100589.78
2022-08-04T06:26:49.669Z,100596.66
2022-08-04T06:27:52.358Z,100576.59
2022-08-04T06:28:55.463Z,100573.44
2022-08-04T06:29:59.305Z,100584.53
2022-08-04T06:32:28.566Z,100551.16
2022-08-04T06:32:41.694Z,100589.72
2022-08-04T06:33:54.948Z,100574.69
2022-08-04T06:35:02.309Z,100590.78
2022-08-04T06:36:08.279Z,100599.16
2022-08-04T06:37:12.046Z,100601.66
2022-08-04T06:38:27.502Z,100599.00
2022-08-04T06:39:31.164Z,100598.56
2022-08-04T06:40:35.033Z,100595.81
2022-08-04T06:41:38.440Z,100606.91
2022-08-04T06:43:06.461Z,100599.78
2022-08-04T06:44:10.399Z,100588.72
2022-08-04T06:45:14.781Z,100604.19
2022-08-04T06:46:16.751Z,100610.25
2022-08-04T06:47:21.664Z,100609.63
2022-08-04T06:48:24.556Z,100596.25
2022-08-04T06:49:48.928Z,100607.53
2022-08-04T06:51:29.756Z,100617.53
2022-08-04T06:52:23.718Z,100600.66
2022-08-04T06:53:27.266Z,100601.88
2022-08-04T06:54:29.184Z,100605.66
2022-08-04T06:55:31.997Z,100623.84
2022-08-04T06:56:36.882Z,100612.16
2022-08-04T06:57:41.314Z,100616.97
2022-08-04T06:58:46.909Z,100615.47
2022-08-04T06:59:57.605Z,100617.59
2022-08-04T07:01:02.166Z,100604.19
2022-08-04T07:02:04.538Z,100619.25
2022-08-04T07:03:07.800Z,100618.41
2022-08-04T07:04:11.759Z,100610.47
2022-08-04T07:05:14.843Z,100623.22
2022-08-04T07:06:16.880Z,100623.03
2022-08-04T07:07:19.756Z,100615.91
2022-08-04T07:08:36.477Z,100618.81
2022-08-04T07:09:39.494Z,100624.69
2022-08-04T07:10:41.911Z,100607.97
2022-08-04T07:11:45.085Z,100626.56
2022-08-04T07:12:47.812Z,100619.69
2022-08-04T07:13:50.555Z,100611.34
2022-08-04T07:14:53.589Z,100615.91
2022-08-04T07:15:56.624Z,100632.66
2022-08-04T07:16:59.894Z,100629.06
2022-08-04T07:18:04.753Z,100638.50
2022-08-04T07:19:10.505Z,100624.69
2022-08-04T07:20:14.554Z,100631.38
2022-08-04T07:21:22.663Z,100611.34
2022-08-04T07:22:26.807Z,100618.63
2022-08-04T07:23:28.839Z,100631.78
2022-08-04T07:24:38.302Z,100638.50
2022-08-04T07:26:11.025Z,100639.72
2022-08-04T07:27:06.742Z,100647.44
2022-08-04T07:28:08.538Z,100630.13
2022-08-04T07:29:12.297Z,100647.28
2022-08-04T07:30:15.340Z,100634.50
2022-08-04T07:31:34.144Z,100650.84
2022-08-04T07:32:38.830Z,100656.91
2022-08-04T07:33:43.118Z,100653.56
2022-08-04T07:34:49.768Z,100661.50
2022-08-04T07:36:10.153Z,100656.28
2022-08-04T07:37:13.144Z,100656.09
2022-08-04T07:38:16.185Z,100635.81
2022-08-04T07:39:28.357Z,100652.31
2022-08-04T07:40:31.958Z,100671.94
2022-08-04T07:41:35.773Z,100644.38
2022-08-04T07:42:38.339Z,100673.22
2022-08-04T07:43:40.567Z,100653.16
2022-08-04T07:44:46.079Z,100656.72
2022-08-04T07:45:48.339Z,100659.00
2022-08-04T07:46:50.387Z,100662.16
2022-08-04T07:48:05.260Z,100657.75
2022-08-04T07:49:08.558Z,100679.28
2022-08-04T07:50:12.698Z,100669.88
2022-08-04T07:51:15.863Z,100675.31
2022-08-04T07:52:18.624Z,100661.50
2022-08-04T07:53:55.046Z,100675.31
2022-08-04T07:54:43.919Z,100663.59
2022-08-04T07:55:46.829Z,100668.81
2022-08-04T07:56:49.518Z,100665.50
2022-08-04T07:57:51.370Z,100677.81
2022-08-04T07:58:53.283Z,100642.31
2022-08-04T07:59:55.081Z,100648.53
2022-08-04T08:00:57.731Z,100665.47
2022-08-04T08:02:02.143Z,100676.56
2022-08-04T08:03:05.102Z,100678.47
2022-08-04T08:04:08.164Z,100623.97
2022-08-04T08:05:14.422Z,100679.72
2022-08-04T08:06:31.001Z,100679.91
2022-08-04T08:07:35.325Z,100679.88
2022-08-04T08:08:40.842Z,100672.38
2022-08-04T08:09:42.785Z,100678.66
2022-08-04T08:10:49.177Z,100671.97
2022-08-04T08:12:37.746Z,100678.25
2022-08-04T08:13:16.269Z,100675.09
2022-08-04T08:14:19.560Z,100679.03
2022-08-04T08:15:22.298Z,100682.81
2022-08-04T08:16:25.453Z,100666.28
2022-08-04T08:17:27.484Z,100676.75
2022-08-04T08:18:30.369Z,100659.00
2022-08-04T08:19:33.506Z,100670.53
2022-08-04T08:20:36.260Z,100686.81
2022-08-04T08:21:58.547Z,100684.91
2022-08-04T08:23:03.168Z,100682.00
2022-08-04T08:24:11.110Z,100696.22
2022-08-04T08:25:14.865Z,100682.00
2022-08-04T08:26:17.664Z,100684.72
2022-08-04T08:27:19.960Z,100693.31
2022-08-04T08:28:22.120Z,100682.88
2022-08-04T08:29:26.008Z,100690.78
2022-08-04T08:30:32.235Z,100684.53
2022-08-04T08:31:56.380Z,100687.25
2022-08-04T08:32:57.325Z,100677.19
2022-08-04T08:34:01.498Z,100696.22
2022-08-04T08:35:03.917Z,100677.00
2022-08-04T08:36:19.723Z,100680.75
2022-08-04T08:37:29.726Z,100698.09
2022-08-04T08:39:01.531Z,100695.34
2022-08-04T08:40:44.838Z,100694.47
2022-08-04T08:42:15.679Z,100701.81
2022-08-04T08:44:06.395Z,100696.13
2022-08-04T08:45:50.481Z,100692.78
2022-08-04T08:47:14.096Z,100697.38
2022-08-04T08:48:40.801Z,100702.88
2022-08-04T08:50:13.832Z,100706.19
2022-08-04T08:51:31.791Z,100702.00
2022-08-04T08:52:57.429Z,100707.03
2022-08-04T08:54:28.381Z,100690.16
2022-08-04T08:56:02.028Z,100697.44
2022-08-04T08:57:31.463Z,100703.91
2022-08-04T08:58:46.907Z,100687.81
2022-08-04T09:00:03.253Z,100705.38
2022-08-04T09:01:23.401Z,100702.88
2022-08-04T09:02:33.854Z,100706.44
2022-08-04T09:04:10.763Z,100688.50
2022-08-04T09:05:44.350Z,100708.94
2022-08-04T09:07:18.241Z,100706.63
2022-08-04T09:08:47.194Z,100704.94
2022-08-04T09:10:00.985Z,100697.00
2022-08-04T09:11:09.277Z,100690.59
2022-08-04T09:12:33.881Z,100698.25
2022-08-04T09:13:48.265Z,100705.38
2022-08-04T09:15:08.435Z,100713.97
2022-08-04T09:16:36.104Z,100695.78
2022-08-04T09:18:01.162Z,100704.75
2022-08-04T09:19:37.803Z,100687.63
2022-08-04T09:20:47.838Z,100703.06
2022-08-04T09:22:12.487Z,100685.53
2022-08-04T09:23:27.394Z,100710.81
2022-08-04T09:24:36.163Z,100707.28
2022-08-04T09:25:47.499Z,100687.44
2022-08-04T09:27:00.250Z,100711.25
2022-08-04T09:28:31.622Z,100704.38
2022-08-04T09:29:47.726Z,100695.38
2022-08-04T09:30:58.136Z,100701.25
2022-08-04T09:32:23.721Z,100703.53
2022-08-04T09:34:01.089Z,100718.53
2022-08-04T09:35:21.370Z,100718.31
2022-08-04T09:36:56.884Z,100716.84
2022-08-04T09:38:29.563Z,100715.38
2022-08-04T09:39:52.010Z,100710.38
2022-08-04T09:41:48.053Z,100716.22
2022-08-04T09:43:59.235Z,100710.94
2022-08-04T09:45:06.845Z,100709.06
2022-08-04T09:46:26.524Z,100715.38
2022-08-04T09:48:06.104Z,100712.88
2022-08-04T09:49:16.761Z,100720.81
2022-08-04T09:50:37.010Z,100718.09
2022-08-04T09:51:57.547Z,100722.09
2022-08-04T09:53:13.261Z,100730.25
2022-08-04T09:54:30.273Z,100717.09
2022-08-04T09:55:53.844Z,100701.22
2022-08-04T09:57:26.911Z,100725.88
2022-08-04T09:58:47.964Z,100721.66
2022-08-04T10:00:04.580Z,100715.41
2022-08-04T10:01:22.807Z,100720.25
2022-08-04T10:02:28.306Z,100716.25
2022-08-04T10:03:37.105Z,100719.59
2022-08-04T10:04:42.919Z,100729.44
2022-08-04T10:05:57.015Z,100731.75
2022-08-04T10:07:13.830Z,100727.97
2022-08-04T10:08:35.875Z,100725.44
2022-08-04T10:09:52.432Z,100671.16
2022-08-04T10:11:07.939Z,100735.47
2022-08-04T10:12:48.392Z,100732.53
2022-08-04T10:14:07.173Z,100739.22
2022-08-04T10:15:28.092Z,100730.03
2022-08-04T10:16:40.670Z,100706.25
2022-08-04T10:17:54.971Z,100737.97
2022-08-04T10:19:10.779Z,100726.06
2022-08-04T10:20:45.710Z,100741.75
2022-08-04T10:22:28.463Z,100745.09
2022-08-04T10:23:55.275Z,100739.84
2022-08-04T10:26:06.140Z,100735.00
2022-08-04T10:27:11.387Z,100741.88
2022-08-04T10:28:19.154Z,100724.63
2022-08-04T10:29:48.047Z,100736.75
2022-08-04T10:30:59.502Z,100734.47
2022-08-04T10:32:11.893Z,100737.19
2022-08-04T10:33:39.293Z,100752.22
2022-08-04T10:35:05.373Z,100747.38
2022-08-04T10:36:18.391Z,100752.22
2022-08-04T10:37:59.748Z,100744.47
2022-08-04T10:38:56.125Z,100752.22
2022-08-04T10:40:35.663Z,100753.47
2022-08-04T10:41:52.396Z,100735.91
2022-08-04T10:43:22.304Z,100741.56
2022-08-04T10:44:57.644Z,100760.75
2022-08-04T10:46:10.208Z,100765.38
2022-08-04T10:47:20.930Z,100766.88
2022-08-04T10:48:45.790Z,100761.63
2022-08-04T10:49:54.671Z,100761.63
2022-08-04T10:51:12.123Z,100742.66
2022-08-04T10:52:24.991Z,100772.50
2022-08-04T10:53:30.355Z,100740.34
2022-08-04T10:54:47.736Z,100769.41
2022-08-04T10:56:08.843Z,100767.91
2022-08-04T10:57:21.537Z,100748.06
2022-08-04T10:58:47.599Z,100761.84
2022-08-04T10:59:59.099Z,100744.72
2022-08-04T11:02:00.810Z,100749.13
2022-08-04T11:03:02.318Z,100762.22
2022-08-04T11:04:10.213Z,100768.09
2022-08-04T11:05:44.641Z,100766.19
2022-08-04T11:06:48.027Z,100763.72
2022-08-04T11:07:53.903Z,100765.19
2022-08-04T11:08:57.397Z,100754.75
2022-08-04T11:09:59.616Z,100771.06
2022-08-04T11:11:09.030Z,100770.44
2022-08-04T11:12:17.432Z,100757.06
2022-08-04T11:13:29.501Z,100771.06
2022-08-04T11:14:42.186Z,100768.13
2022-08-04T11:15:52.859Z,100779.00
2022-08-04T11:17:20.665Z,100764.75
2022-08-04T11:19:05.025Z,100771.19
2022-08-04T11:20:35.729Z,100751.16
2022-08-04T11:21:44.948Z,100762.66
2022-08-04T11:23:08.398Z,100762.22
2022-08-04T11:24:23.078Z,100761.00
2022-08-04T11:25:56.422Z,100763.03
2022-08-04T11:27:05.846Z,100773.09
2022-08-04T11:28:33.567Z,100767.47
2022-08-04T11:30:00.801Z,100771.63
2022-08-04T11:31:10.921Z,100780.66
2022-08-04T11:32:26.791Z,100778.38
2022-08-04T11:33:56.898Z,100780.41
2022-08-04T11:35:05.536Z,100772.69
2022-08-04T11:36:24.632Z,100763.97
2022-08-04T11:37:37.803Z,100773.97
2022-08-04T11:38:58.117Z,100783.81
2022-08-04T11:40:07.940Z,100769.16
2022-08-04T11:41:15.278Z,100775.22
2022-08-04T11:42:36.523Z,100790.31
2022-08-04T11:43:58.653Z,100786.72
2022-08-04T11:45:06.414Z,100775.47
2022-08-04T11:46:13.285Z,100803.28
2022-08-04T11:47:39.761Z,100790.91
2022-08-04T11:48:48.864Z,100785.91
2022-08-04T11:50:17.263Z,100789.69
2022-08-04T11:51:21.228Z,100788.19
2022-08-04T11:52:24.556Z,100776.72
2022-08-04T11:53:36.371Z,100794.50
2022-08-04T11:54:40.324Z,100788.66
2022-08-04T11:56:07.087Z,100781.78
2022-08-04T11:57:05.110Z,100778.41
2022-08-04T11:58:06.888Z,100782.38
2022-08-04T11:59:09.092Z,100781.97
2022-08-04T12:00:14.630Z,100792.00
2022-08-04T12:01:28.423Z,100805.81
2022-08-04T12:02:52.420Z,100795.75
2022-08-04T12:04:32.320Z,100790.31
2022-08-04T12:05:52.687Z,100799.09
2022-08-04T12:08:50.085Z,100797.59
2022-08-04T12:10:15.506Z,100800.94
2022-08-04T12:11:17.252Z,100795.94
2022-08-04T12:12:32.588Z,100800.34
2022-08-04T12:14:00.690Z,100792.41
2022-08-04T12:15:15.620Z,100805.16
2022-08-04T12:16:30.264Z,100785.72
2022-08-04T12:17:52.454Z,100786.16
2022-08-04T12:18:58.617Z,100807.88
2022-08-04T12:20:32.102Z,100811.44
2022-08-04T12:21:35.263Z,100804.13
2022-08-04T12:22:44.407Z,100805.78
2022-08-04T12:23:49.537Z,100806.25
2022-08-04T12:25:09.201Z,100787.63
2022-08-04T12:26:17.563Z,100814.19
2022-08-04T12:27:30.633Z,100797.25
2022-08-04T12:29:07.289Z,100797.66
2022-08-04T12:31:02.045Z,100812.69
2022-08-04T12:31:45.900Z,100820.19
2022-08-04T12:32:55.681Z,100810.41
2022-08-04T12:34:06.764Z,100819.19
2022-08-04T12:36:05.135Z,100827.31
2022-08-04T12:37:20.505Z,100810.41
2022-08-04T12:38:29.017Z,100827.53
2022-08-04T12:39:32.280Z,100821.91
2022-08-04T12:40:51.551Z,100819.63
2022-08-04T12:42:33.527Z,100811.22
2022-08-04T12:43:44.384Z,100817.47
2022-08-04T12:44:49.939Z,100807.88
2022-08-04T12:45:58.345Z,100809.16
2022-08-04T12:47:25.669Z,100809.56
2022-08-04T12:48:27.239Z,100781.13
2022-08-04T12:49:30.543Z,100801.44
2022-08-04T12:50:33.279Z,100790.97
2022-08-04T12:52:08.221Z,100800.59
2022-08-04T12:53:19.522Z,100807.03
2022-08-04T12:54:39.175Z,100807.88
2022-08-04T12:55:50.052Z,100797.41
2022-08-04T12:57:09.077Z,100773.81
2022-08-04T12:58:42.985Z,100799.28
2022-08-04T12:59:56.956Z,100796.97
2022-08-04T13:02:07.977Z,100800.34
2022-08-04T13:02:30.712Z,100793.28
2022-08-04T13:04:04.288Z,100815.38
2022-08-04T13:05:08.174Z,100818.31
2022-08-04T13:06:16.354Z,100828.16
2022-08-04T13:07:27.397Z,100808.31
2022-08-04T13:08:29.204Z,100789.94
2022-08-04T13:09:35.095Z,100811.44
2022-08-04T13:10:42.476Z,100816.28
2022-08-04T13:11:50.983Z,100805.41
2022-08-04T13:13:00.789Z,100807.25
2022-08-04T13:14:25.634Z,100801.63
2022-08-04T13:15:28.204Z,100802.84
2022-08-04T13:16:31.313Z,100784.88
2022-08-04T13:18:14.903Z,100803.03
2022-08-04T13:19:17.733Z,100784.69
2022-08-04T13:20:30.704Z,100788.88
2022-08-04T13:21:49.945Z,100782.38
2022-08-04T13:23:22.215Z,100800.72
2022-08-04T13:24:32.027Z,100808.50
2022-08-04T13:26:43.881Z,100799.91
2022-08-04T13:27:16.169Z,100797.59
2022-08-04T13:28:24.167Z,100800.75
2022-08-04T13:29:58.690Z,100770.88
2022-08-04T13:31:08.500Z,100808.25
2022-08-04T13:32:15.369Z,100806.19
2022-08-04T13:33:17.980Z,100801.63
2022-08-04T13:34:21.343Z,100780.50
2022-08-04T13:35:54.156Z,100803.72
2022-08-04T13:36:49.602Z,100789.50
2022-08-04T13:37:52.999Z,100790.72
2022-08-04T13:39:13.634Z,100788.25
2022-08-04T13:40:16.634Z,100794.91
2022-08-04T13:41:19.397Z,100809.34
2022-08-04T13:42:22.563Z,100803.28
2022-08-04T13:44:15.686Z,100803.91
2022-08-04T13:44:54.886Z,100804.53
2022-08-04T13:46:06.012Z,100792.78
2022-08-04T13:47:15.788Z,100802.84
2022-08-04T13:48:32.278Z,100797.00
2022-08-04T13:49:38.117Z,100802.00
2022-08-04T13:51:05.017Z,100807.88
2022-08-04T13:52:11.472Z,100810.59
2022-08-04T13:53:17.550Z,100812.06
2022-08-04T13:54:24.540Z,100822.97
2022-08-04T13:55:35.438Z,100807.06
2022-08-04T13:56:45.049Z,100809.16
2022-08-04T13:57:57.686Z,100817.09
2022-08-04T13:59:01.566Z,100802.06
2022-08-04T14:00:08.884Z,100813.75
2022-08-04T14:01:17.072Z,100807.44
2022-08-04T14:02:39.362Z,100794.50
2022-08-04T14:04:05.218Z,100780.06
2022-08-04T14:05:32.562Z,100795.69
2022-08-04T14:07:17.994Z,100800.50
2022-08-04T14:08:29.110Z,100797.59
2022-08-04T14:09:35.740Z,100815.78
2022-08-04T14:10:39.962Z,100814.56
2022-08-04T14:12:09.953Z,100811.44
2022-08-04T14:13:12.867Z,100815.41
2022-08-04T14:14:24.279Z,100821.03
2022-08-04T14:16:01.344Z,100828.16
2022-08-04T14:17:03.423Z,100822.09
2022-08-04T14:18:21.317Z,100825.84